Portada
METAR-TAF:

METAR-TAF

Aeroports :

Txità, Rússia

latitud: 52-05N, longitud: 113-29E, altitud: 685 m

Observació

L'informe es va fer fa 13 minuts, a les 21:00 UTC
Vent 4 kt del Nord
Temperatura 13°C
Humitat 94%
Pressió 1017 hPa
Visibilitat 10 km o més

METAR: UIAA 142100Z 36002MPS 9999 NSC 13/12 Q1017 R29/CLRD70 NOSIG RMK QFE704/0939

Hora: 06:13 (21:13 UTC)

Pronòstic

L'informe es va fer fa 1 hora i 13 minuts, a les 20:00 UTC
Pronòstic vàlid del 14 a les 21 UTC al 15 a les 21 UTC
Vent 6 kt del Nord/Nord-Est
Visibilitat 10 km o més
Cel ennuvolat a una alçada de 3000 ft, Cumulonimbus.
Temporalment
l' 15 a les 04 UTC al 15 a les 14 UTC
Vent 12 kt amb direcció variable
tempesta, pluja
Evolucionant progressivament
l' 15 a les 14 UTC al 15 a les 16 UTC
Vent 12 kt del Oest amb ràfegues de 23 kt

TAF: UIAA 142000Z 1421/1521 02003MPS 9999 BKN030CB TEMPO 1504/1514 VRB06MPS -TSRA BECMG 1514/1516 28006G12MPS

Observacions i pronòstics meteorològics de més de 4000 aeroports (METAR i TAF).

Les estacions disponibles són els punts grocs i vermells al mapa.

Posi el ratolí al punt desitjat per veure el nom de l'estació.

Feu clic per veure les observacions i els pronòstics meteorològics.

Per canviar el mapa: feu clic els botons verds amb una creu de color negre per apropar; al botó verd amb un guió per allunyar la imatge; o en les fletxes verdes per a mapes adjacents.


METAR-TAF: